Time;durP1;ratioP1;P1;durP2;ratioP2;P2;SDS_P1;SDS_P2;PMS_P1;PMS_P2;Temp;Humidity;BMP_temperature;BMP_pressure;BME280_temperature;BME280_humidity;BME280_pressure;Samples;Min_cycle;Max_cycle;Signal;HPM_P1;HPM_P2
2023/07/08 00:01:10;;;;;;;10.2;4.6;;;;;;;18.4;72.9834;940.5201;;;;
2023/07/08 00:03:37;;;;;;;6.5;4.3;;;;;;;18.3;73.07129;940.488;;;;
2023/07/08 00:06:02;;;;;;;10.9;4.7;;;;;;;18.47;72.36914;940.4353;;;;
2023/07/08 00:08:27;;;;;;;7.8;4.2;;;;;;;18.42;72.95117;940.4642;;;;
2023/07/08 00:11:02;;;;;;;8.1;4.4;;;;;;;18.45;72.8877;940.459;;;;
2023/07/08 00:13:27;;;;;;;7.4;4.3;;;;;;;18.3;73.30371;940.442;;;;
2023/07/08 00:15:55;;;;;;;7.2;4.4;;;;;;;18.28;73.64746;940.3723;;;;
2023/07/08 00:19:11;;;;;;;7.9;4.5;;;;;;;18.05;74.63184;940.3918;;;;
2023/07/08 00:21:36;;;;;;;7.6;4.3;;;;;;;17.82;75.1748;940.3803;;;;
2023/07/08 00:24:01;;;;;;;11.5;5.1;;;;;;;17.88;75.32422;940.3522;;;;
2023/07/08 00:26:26;;;;;;;10.8;4.9;;;;;;;18.1;74.73438;940.3491;;;;
2023/07/08 00:28:53;;;;;;;7.4;4.4;;;;;;;18.22;74.18652;940.3167;;;;
2023/07/08 00:31:23;;;;;;;8.8;4.6;;;;;;;18.31;73.95801;940.3983;;;;
2023/07/08 00:33:43;;;;;;;8.5;4.5;;;;;;;18.24;74.79199;940.3987;;;;
2023/07/08 00:36:08;;;;;;;9.7;4.8;;;;;;;18;75.04102;940.3706;;;;
2023/07/08 00:38:37;;;;;;;7.1;4.5;;;;;;;17.9;75.79102;940.4044;;;;
2023/07/08 00:41:01;;;;;;;12.2;6.5;;;;;;;18.01;75.50879;940.2882;;;;
2023/07/08 00:43:32;;;;;;;7.6;4.1;;;;;;;17.85;75.95703;940.2344;;;;
2023/07/08 00:46:01;;;;;;;9.1;4.3;;;;;;;17.6;76.86523;940.2742;;;;
2023/07/08 00:48:26;;;;;;;11.2;5.2;;;;;;;17.44;77.61328;940.332;;;;
2023/07/08 00:50:52;;;;;;;7.7;4.5;;;;;;;17.35;78.51563;940.3047;;;;
2023/07/08 00:53:17;;;;;;;9.2;4.2;;;;;;;17.45;78.50977;940.3189;;;;
2023/07/08 00:55:42;;;;;;;9.2;4.7;;;;;;;17.43;78.63477;940.3828;;;;
2023/07/08 00:58:09;;;;;;;7.6;4.5;;;;;;;17.41;78.82715;940.3596;;;;
2023/07/08 01:00:35;;;;;;;10.5;5.1;;;;;;;17.26;79.56641;940.4009;;;;
2023/07/08 01:04:08;;;;;;;9.4;4.6;;;;;;;17.38;79.23926;940.4186;;;;
2023/07/08 01:06:33;;;;;;;6.5;4.3;;;;;;;17.41;78.80469;940.3538;;;;
2023/07/08 01:08:58;;;;;;;9.5;5.1;;;;;;;17.29;78.61035;940.3884;;;;
2023/07/08 01:11:23;;;;;;;9.9;4.4;;;;;;;17.25;79.00586;940.3995;;;;
2023/07/08 01:13:53;;;;;;;7.1;4.4;;;;;;;17.2;78.65039;940.4537;;;;
2023/07/08 01:16:16;;;;;;;6.9;4.2;;;;;;;17.09;79.16602;940.4542;;;;
2023/07/08 01:18:52;;;;;;;8;4.1;;;;;;;17.09;79.09473;940.4678;;;;
2023/07/08 01:21:11;;;;;;;8.1;4.4;;;;;;;17.06;79.01855;940.4185;;;;
2023/07/08 01:23:37;;;;;;;8.5;4.7;;;;;;;17.1;79.30664;940.4099;;;;
2023/07/08 01:26:02;;;;;;;7.8;4.3;;;;;;;17.26;79.19531;940.4202;;;;
2023/07/08 01:28:28;;;;;;;8.5;4.8;;;;;;;17.43;78.29785;940.3699;;;;
2023/07/08 01:30:53;;;;;;;8.8;4.5;;;;;;;17.32;78.88184;940.4105;;;;
2023/07/08 01:33:22;;;;;;;8.3;4.5;;;;;;;17.29;79.13184;940.324;;;;
2023/07/08 01:35:46;;;;;;;7.9;4.3;;;;;;;17.39;78.61426;940.3066;;;;
2023/07/08 01:38:13;;;;;;;7.9;4.6;;;;;;;17.43;78.45996;940.3691;;;;
2023/07/08 01:40:38;;;;;;;10.2;4.3;;;;;;;17.47;78.47852;940.3541;;;;
2023/07/08 01:43:03;;;;;;;6.6;4;;;;;;;17.46;78.40723;940.2352;;;;
2023/07/08 01:45:32;;;;;;;6.5;4.2;;;;;;;17.34;78.97656;940.23;;;;
2023/07/08 01:47:57;;;;;;;7.5;4.4;;;;;;;17.24;79.20313;940.2015;;;;
2023/07/08 01:50:28;;;;;;;6.8;4.4;;;;;;;17.19;79.41406;940.2155;;;;
2023/07/08 01:58:05;;;;;;;7.4;4.9;;;;;;;17.32;78.79883;940.1731;;;;
2023/07/08 02:00:30;;;;;;;8.5;4.4;;;;;;;17.1;79.33008;940.2264;;;;
2023/07/08 02:02:57;;;;;;;8.7;4.9;;;;;;;17.09;78.24707;940.2008;;;;
2023/07/08 02:05:23;;;;;;;9.7;4.8;;;;;;;16.92;78.90137;940.1028;;;;
2023/07/08 02:07:51;;;;;;;7.6;4.5;;;;;;;17.02;79.19727;940.2198;;;;
2023/07/08 02:10:18;;;;;;;9;5;;;;;;;16.91;79.12012;940.152;;;;
2023/07/08 02:12:43;;;;;;;9.7;5.6;;;;;;;16.82;79.82227;940.1031;;;;
2023/07/08 02:15:15;;;;;;;8.3;4.9;;;;;;;16.95;79.99512;940.1516;;;;
2023/07/08 02:17:44;;;;;;;8.3;5.8;;;;;;;17.01;79.61328;940.0606;;;;
2023/07/08 02:20:10;;;;;;;8;5.5;;;;;;;17.01;79.625;939.9489;;;;
2023/07/08 02:22:40;;;;;;;9.2;5.6;;;;;;;16.89;80.125;939.9672;;;;
2023/07/08 02:25:05;;;;;;;9.7;4.6;;;;;;;16.73;80.29199;940.0533;;;;
2023/07/08 02:27:30;;;;;;;6.3;4.3;;;;;;;16.7;79.89355;940.0656;;;;
2023/07/08 02:30:00;;;;;;;9.3;5.3;;;;;;;16.65;80.03418;940.0433;;;;
2023/07/08 02:32:25;;;;;;;8.2;4.6;;;;;;;16.64;79.89453;940.0314;;;;
2023/07/08 02:34:51;;;;;;;9.6;4.9;;;;;;;16.54;79.85352;939.9895;;;;
2023/07/08 02:37:16;;;;;;;8.8;4.6;;;;;;;16.61;80.1543;939.9992;;;;
2023/07/08 02:39:46;;;;;;;8.5;4.9;;;;;;;16.85;79.46973;940.085;;;;
2023/07/08 02:42:16;;;;;;;10.3;4.8;;;;;;;16.93;78.98438;940.0753;;;;
2023/07/08 02:44:41;;;;;;;9;5.4;;;;;;;16.79;79.24902;940.1587;;;;
2023/07/08 02:47:17;;;;;;;8.3;4.8;;;;;;;16.84;78.95801;940.1311;;;;
2023/07/08 02:49:45;;;;;;;9.6;4.6;;;;;;;16.61;79.69141;940.1633;;;;
2023/07/08 02:52:09;;;;;;;8.1;4.7;;;;;;;16.62;80.15625;940.1426;;;;
2023/07/08 02:54:35;;;;;;;9.4;5.1;;;;;;;16.63;80.51563;940.1369;;;;
2023/07/08 02:57:03;;;;;;;8.4;5.2;;;;;;;16.77;80.33496;940.0503;;;;
2023/07/08 02:59:29;;;;;;;8;4.8;;;;;;;16.87;80.02832;940.0438;;;;
2023/07/08 03:01:59;;;;;;;7.5;4.4;;;;;;;16.84;80.47559;940.1021;;;;
2023/07/08 03:04:30;;;;;;;9.8;4.7;;;;;;;16.75;80.68848;940.0997;;;;
2023/07/08 03:06:54;;;;;;;8.7;4.9;;;;;;;16.9;80.38086;940.1899;;;;
2023/07/08 03:09:19;;;;;;;12.3;4.9;;;;;;;16.85;79.78223;940.1631;;;;
2023/07/08 03:11:45;;;;;;;9.9;5.5;;;;;;;16.98;80.11816;940.1133;;;;
2023/07/08 03:14:10;;;;;;;16.8;10.5;;;;;;;17.03;79.48926;940.0655;;;;
2023/07/08 03:16:35;;;;;;;11;6.5;;;;;;;17.19;79.1123;940.0771;;;;
2023/07/08 03:19:01;;;;;;;8.5;5.5;;;;;;;17.21;78.94141;939.9835;;;;
2023/07/08 03:21:26;;;;;;;9.7;5;;;;;;;17.17;78.57715;940.1136;;;;
2023/07/08 03:23:52;;;;;;;10.8;5.3;;;;;;;17.3;78.10156;940.1541;;;;
2023/07/08 03:26:18;;;;;;;8.7;4.9;;;;;;;17.34;78.6875;940.2888;;;;
2023/07/08 03:28:44;;;;;;;7.9;4.4;;;;;;;17.44;78.02148;940.2667;;;;
2023/07/08 03:31:09;;;;;;;8.6;5;;;;;;;17.39;77.48926;940.2196;;;;
2023/07/08 03:33:38;;;;;;;8;5;;;;;;;17.11;78.35645;940.2899;;;;
2023/07/08 03:36:03;;;;;;;10.7;4.6;;;;;;;17.16;78.57422;940.1942;;;;
2023/07/08 03:38:31;;;;;;;11.9;5;;;;;;;17.27;78.25781;940.1962;;;;
2023/07/08 03:40:56;;;;;;;11.3;4.6;;;;;;;17.02;78.53711;940.2708;;;;
2023/07/08 03:43:27;;;;;;;9.2;4.9;;;;;;;17.11;78.39063;940.3599;;;;
2023/07/08 03:45:56;;;;;;;6.7;4.4;;;;;;;16.97;79.20117;940.4151;;;;
2023/07/08 03:48:21;;;;;;;7.6;4.7;;;;;;;16.91;79.27051;940.3483;;;;
2023/07/08 03:50:46;;;;;;;8.9;4.6;;;;;;;16.79;80.11816;940.4072;;;;
2023/07/08 03:53:11;;;;;;;9.8;4.9;;;;;;;16.75;80.2373;940.349;;;;
2023/07/08 03:55:38;;;;;;;7.9;4.4;;;;;;;16.98;79.67773;940.3256;;;;
2023/07/08 03:58:04;;;;;;;9.2;4.9;;;;;;;17.16;79.4209;940.3181;;;;
2023/07/08 04:02:33;;;;;;;10.9;4.9;;;;;;;17.15;79.37305;940.3271;;;;
2023/07/08 04:05:01;;;;;;;10.5;4.9;;;;;;;17.54;74.03613;940.2645;;;;
2023/07/08 04:07:26;;;;;;;7.1;4.6;;;;;;;17.35;77.12402;940.2548;;;;
2023/07/08 04:09:55;;;;;;;10.4;4.8;;;;;;;17.16;78.67871;940.3656;;;;
2023/07/08 04:12:20;;;;;;;7.7;4.2;;;;;;;17.09;78.93066;940.3231;;;;
2023/07/08 04:14:45;;;;;;;6.1;4.3;;;;;;;17.07;79.56445;940.3056;;;;
2023/07/08 04:17:15;;;;;;;7.1;4.2;;;;;;;17.07;79.54297;940.3032;;;;
2023/07/08 04:19:43;;;;;;;9.4;4.5;;;;;;;16.98;80.07129;940.1454;;;;
2023/07/08 04:22:05;;;;;;;11;5.3;;;;;;;17.02;80.49707;940.1879;;;;
2023/07/08 04:24:32;;;;;;;7.8;4.3;;;;;;;17.18;80.06152;940.2109;;;;
2023/07/08 04:26:57;;;;;;;7.1;4.3;;;;;;;17.35;80.05762;940.2048;;;;
2023/07/08 04:30:17;;;;;;;7.6;4.3;;;;;;;17.36;79.28223;940.1468;;;;
2023/07/08 04:32:43;;;;;;;8.2;4.2;;;;;;;17.4;79.24316;940.2106;;;;
2023/07/08 04:35:14;;;;;;;18.5;10.4;;;;;;;17.39;79.60059;940.2463;;;;
2023/07/08 04:38:10;;;;;;;9.9;5.6;;;;;;;17.35;78.75879;940.2717;;;;
2023/07/08 04:40:36;;;;;;;7.2;4.7;;;;;;;17.58;78.61523;940.3284;;;;
2023/07/08 04:42:59;;;;;;;8.1;4.6;;;;;;;17.73;77.67773;940.2994;;;;
2023/07/08 04:45:42;;;;;;;7.9;4.9;;;;;;;17.88;76.2168;940.3555;;;;
2023/07/08 04:48:12;;;;;;;7.5;4.3;;;;;;;18.08;74.9502;940.3591;;;;
2023/07/08 04:50:32;;;;;;;7.9;4.4;;;;;;;18.29;74.23047;940.4076;;;;
2023/07/08 04:52:57;;;;;;;10.8;4.9;;;;;;;18.41;74.50781;940.3547;;;;
2023/07/08 04:55:25;;;;;;;7.4;4.6;;;;;;;18.59;74.32715;940.3446;;;;
2023/07/08 04:57:50;;;;;;;7.5;4.7;;;;;;;18.69;74.21777;940.4465;;;;
2023/07/08 05:00:19;;;;;;;7.6;4.4;;;;;;;18.74;73.37598;940.4376;;;;
2023/07/08 05:02:43;;;;;;;9.2;4.9;;;;;;;18.95;74.12012;940.4905;;;;
2023/07/08 05:05:12;;;;;;;6.8;4.2;;;;;;;19.19;75.38574;940.5062;;;;
2023/07/08 05:07:37;;;;;;;9.3;4.3;;;;;;;19.33;75.57227;940.54;;;;
2023/07/08 05:10:05;;;;;;;6.5;4.3;;;;;;;19.79;73.28223;940.5132;;;;
2023/07/08 05:12:31;;;;;;;8.3;4.1;;;;;;;20.56;67.52344;940.4097;;;;
2023/07/08 05:15:01;;;;;;;9.5;4.4;;;;;;;21.68;64.38086;940.5229;;;;
2023/07/08 05:17:26;;;;;;;7.8;3.9;;;;;;;22.4;60.19043;940.4709;;;;
2023/07/08 05:30:45;;;;;;;7;4;;;;;;;24.55;53.9043;940.6236;;;;
2023/07/08 05:33:14;;;;;;;5.8;3.5;;;;;;;24.6;52.53125;940.7054;;;;
2023/07/08 05:35:50;;;;;;;7.7;3.7;;;;;;;24.13;53.37109;940.6738;;;;
2023/07/08 05:38:20;;;;;;;7.9;3.5;;;;;;;23.65;51.84375;940.6996;;;;
2023/07/08 05:40:54;;;;;;;7.1;4.2;;;;;;;23.44;53.91113;940.7045;;;;
2023/07/08 05:52:25;;;;;;;6.5;4.2;;;;;;;25.04;49.98633;940.6812;;;;
2023/07/08 05:54:56;;;;;;;7.5;4.2;;;;;;;26.12;48.94824;940.6761;;;;
2023/07/08 05:57:21;;;;;;;5.9;4;;;;;;;26.98;46.06836;940.7692;;;;
2023/07/08 05:59:49;;;;;;;6.1;4.1;;;;;;;27.57;44.28906;940.7106;;;;
2023/07/08 06:02:13;;;;;;;5.2;3.8;;;;;;;28.07;43.41113;940.7556;;;;
2023/07/08 06:04:38;;;;;;;8.6;4.4;;;;;;;28.67;42.1123;940.764;;;;
2023/07/08 06:07:03;;;;;;;6.1;4.1;;;;;;;28.08;47.04883;940.7089;;;;
2023/07/08 06:09:32;;;;;;;8.5;3.8;;;;;;;27.64;46.24219;940.6857;;;;
2023/07/08 06:11:57;;;;;;;7.2;3.8;;;;;;;28.06;44.44434;940.7209;;;;
2023/07/08 06:14:23;;;;;;;7.2;3.9;;;;;;;28.68;43.55273;940.7834;;;;
2023/07/08 06:16:48;;;;;;;8.2;3.7;;;;;;;28.54;43.33789;940.7949;;;;
2023/07/08 06:19:20;;;;;;;9;4;;;;;;;27.49;44.1748;940.7394;;;;
2023/07/08 06:26:05;;;;;;;6.3;3.8;;;;;;;26.82;46.73828;940.7469;;;;
2023/07/08 06:28:35;;;;;;;7.9;4.3;;;;;;;27.63;45.125;940.7753;;;;
2023/07/08 06:31:00;;;;;;;6.8;3.8;;;;;;;28.42;43.75391;940.8155;;;;
2023/07/08 06:33:30;;;;;;;7.7;4;;;;;;;27.79;43.10059;940.7683;;;;
2023/07/08 06:35:55;;;;;;;6.9;3.6;;;;;;;27.52;46.20605;940.8091;;;;
2023/07/08 06:38:27;;;;;;;4.9;3.5;;;;;;;28.78;41.0752;940.8474;;;;
2023/07/08 06:40:58;;;;;;;21.2;12.7;;;;;;;27.97;41.23926;940.8477;;;;
2023/07/08 06:43:23;;;;;;;11.1;6.8;;;;;;;27.91;41.28125;940.8563;;;;
2023/07/08 06:45:50;;;;;;;6.8;3.7;;;;;;;28.25;44.30762;940.9182;;;;
2023/07/08 06:48:16;;;;;;;6.9;4.3;;;;;;;28.86;39.50098;940.9464;;;;
2023/07/08 06:50:42;;;;;;;6.1;3.8;;;;;;;28.67;39.7334;940.8814;;;;
2023/07/08 06:53:07;;;;;;;7.3;3.8;;;;;;;28.51;42.45508;940.8491;;;;
2023/07/08 06:55:32;;;;;;;5.2;3.6;;;;;;;28.18;43.17285;940.9598;;;;
2023/07/08 06:58:00;;;;;;;5.5;3.3;;;;;;;27.66;43.01563;940.8826;;;;
2023/07/08 07:00:25;;;;;;;5.3;3.6;;;;;;;26.82;44.71289;940.8391;;;;
2023/07/08 07:02:52;;;;;;;6;4;;;;;;;27.16;47.05957;940.8605;;;;
2023/07/08 07:05:17;;;;;;;6.5;3.7;;;;;;;27.61;44.79102;940.7961;;;;
2023/07/08 07:07:46;;;;;;;6.4;4.1;;;;;;;27.49;45.44336;940.7619;;;;
2023/07/08 07:10:11;;;;;;;7.1;3.7;;;;;;;27.5;46.2041;940.8111;;;;
2023/07/08 07:12:44;;;;;;;6.2;3.6;;;;;;;27.38;44.45996;940.7898;;;;
2023/07/08 07:15:15;;;;;;;7.7;4.2;;;;;;;27.25;45.7627;940.7665;;;;
2023/07/08 07:17:47;;;;;;;7.7;4;;;;;;;27.46;48.76367;940.7835;;;;
2023/07/08 07:20:18;;;;;;;7.7;3.7;;;;;;;28.69;45.63574;940.815;;;;
2023/07/08 07:26:36;;;;;;;6;3.6;;;;;;;30.18;39.41309;940.7685;;;;
2023/07/08 07:29:04;;;;;;;7.8;3.8;;;;;;;29.71;43.82031;940.7957;;;;
2023/07/08 07:31:29;;;;;;;6.7;3.5;;;;;;;29.73;41.78223;940.8039;;;;
2023/07/08 07:33:57;;;;;;;5.6;3.5;;;;;;;29.88;40.66406;940.8356;;;;
2023/07/08 07:36:22;;;;;;;6.9;3.6;;;;;;;29.22;40.83008;940.8176;;;;
2023/07/08 07:38:49;;;;;;;6.2;3.3;;;;;;;28.49;43.02441;940.7816;;;;
2023/07/08 07:41:14;;;;;;;6.3;3.3;;;;;;;28.71;41.40332;940.7194;;;;
2023/07/08 07:43:44;;;;;;;9.2;4;;;;;;;29.64;40.43945;940.7042;;;;
2023/07/08 07:46:10;;;;;;;6.6;3.6;;;;;;;29.95;39.17871;940.7569;;;;
2023/07/08 07:48:38;;;;;;;7.7;3.4;;;;;;;30.25;38.5957;940.8228;;;;
2023/07/08 07:51:03;;;;;;;7;3.7;;;;;;;30.41;41.2959;940.7819;;;;
2023/07/08 07:53:31;;;;;;;5.9;3.5;;;;;;;29.94;39.42773;940.7789;;;;
2023/07/08 07:55:56;;;;;;;6;3.8;;;;;;;29.54;39.21484;940.782;;;;
2023/07/08 07:58:23;;;;;;;6.8;3.7;;;;;;;28.97;41.60547;940.7401;;;;
2023/07/08 08:00:55;;;;;;;31.3;17;;;;;;;27.8;39.68066;940.7166;;;;
2023/07/08 08:03:24;;;;;;;11.1;5.3;;;;;;;27.52;42.90723;940.7247;;;;
2023/07/08 08:05:56;;;;;;;7.4;4;;;;;;;26.78;45.24219;940.6924;;;;
2023/07/08 08:08:29;;;;;;;7;3.5;;;;;;;26.96;44.31152;940.7417;;;;
2023/07/08 08:10:54;;;;;;;7.4;3.3;;;;;;;27.32;45.6875;940.695;;;;
2023/07/08 08:13:24;;;;;;;6.9;3.6;;;;;;;27.72;43.4248;940.7642;;;;
2023/07/08 08:15:53;;;;;;;6.4;3.4;;;;;;;28.08;40.77441;940.7986;;;;
2023/07/08 08:18:23;;;;;;;7.1;3.3;;;;;;;28.06;42.16309;940.8575;;;;
2023/07/08 08:20:47;;;;;;;5.1;3.3;;;;;;;28.08;43.48438;940.858;;;;
2023/07/08 08:23:14;;;;;;;6.9;3.2;;;;;;;28.98;43.1416;940.8563;;;;
2023/07/08 08:25:39;;;;;;;4.4;3.1;;;;;;;30.3;41.57324;940.8959;;;;
2023/07/08 08:28:08;;;;;;;4.4;2.8;;;;;;;31.57;39.25879;940.8444;;;;
2023/07/08 08:30:33;;;;;;;6.5;3.3;;;;;;;32.24;36.19922;940.8203;;;;
2023/07/08 08:32:59;;;;;;;5.1;3.3;;;;;;;32.4;36.41699;940.8409;;;;
2023/07/08 08:35:25;;;;;;;6;3.2;;;;;;;30.94;34.7207;940.7556;;;;
2023/07/08 08:37:56;;;;;;;6.7;3.8;;;;;;;31.91;35.77734;940.7522;;;;
2023/07/08 08:40:26;;;;;;;6.6;3.3;;;;;;;31.72;36.21875;940.6589;;;;
2023/07/08 08:42:53;;;;;;;5.1;3.4;;;;;;;33.59;32.25391;940.7014;;;;
2023/07/08 08:45:26;;;;;;;4.8;3.6;;;;;;;34.14;31.18555;940.6564;;;;
2023/07/08 08:47:51;;;;;;;5.3;3.7;;;;;;;34.45;32.85742;940.6301;;;;
2023/07/08 08:50:35;;;;;;;6.7;3.4;;;;;;;33.21;35.09863;940.6139;;;;
2023/07/08 08:53:00;;;;;;;6.5;3.7;;;;;;;31.95;37.21875;940.6053;;;;
2023/07/08 08:55:26;;;;;;;4.5;3.4;;;;;;;32.73;37.99023;940.6523;;;;
2023/07/08 08:57:51;;;;;;;6.6;3.5;;;;;;;33.42;34.5625;940.6577;;;;
2023/07/08 09:00:16;;;;;;;4.3;3.1;;;;;;;34.41;31.10742;940.6735;;;;
2023/07/08 09:02:43;;;;;;;5.3;3.5;;;;;;;35.61;30.3916;940.7051;;;;
2023/07/08 09:05:09;;;;;;;5.3;3.2;;;;;;;35.45;28.01465;940.65;;;;
2023/07/08 09:07:43;;;;;;;7.1;3.3;;;;;;;36.06;29.04297;940.695;;;;
2023/07/08 09:10:09;;;;;;;6.5;3.3;;;;;;;36.78;27.67188;940.7037;;;;
2023/07/08 09:12:35;;;;;;;4.3;3.2;;;;;;;36.43;27.5791;940.658;;;;
2023/07/08 09:15:00;;;;;;;5.7;3.5;;;;;;;36.07;29.18945;940.6465;;;;
2023/07/08 09:17:30;;;;;;;4.7;3.1;;;;;;;36.36;25.91699;940.6661;;;;
2023/07/08 09:19:53;;;;;;;4.6;3.8;;;;;;;35.72;26.7627;940.6247;;;;
2023/07/08 09:22:18;;;;;;;6.2;3.4;;;;;;;35.58;28.42188;940.6626;;;;
2023/07/08 09:24:43;;;;;;;7.4;3.3;;;;;;;35.11;30.55176;940.6794;;;;
2023/07/08 09:27:08;;;;;;;4.6;3.1;;;;;;;33.43;30.98047;940.6953;;;;
2023/07/08 09:29:38;;;;;;;6;3.2;;;;;;;33.49;31.6582;940.6458;;;;
2023/07/08 09:32:06;;;;;;;6.3;3.6;;;;;;;32.78;33.92578;940.6604;;;;
2023/07/08 09:34:31;;;;;;;6.8;3.1;;;;;;;32.64;33.63867;940.6099;;;;
2023/07/08 09:37:02;;;;;;;5.8;3.1;;;;;;;32.89;33.5498;940.5905;;;;
2023/07/08 09:39:32;;;;;;;5.2;3.5;;;;;;;32.86;34.9043;940.5772;;;;
2023/07/08 09:42:03;;;;;;;5.6;3.3;;;;;;;32.75;32.35059;940.5568;;;;
2023/07/08 09:44:34;;;;;;;5.7;3;;;;;;;33.47;31.68066;940.5511;;;;
2023/07/08 09:47:01;;;;;;;7.2;3.9;;;;;;;33.48;34.55469;940.5795;;;;
2023/07/08 09:49:27;;;;;;;4.8;3;;;;;;;32.61;37.58496;940.5995;;;;
2023/07/08 09:51:55;;;;;;;7.4;3.5;;;;;;;32.53;35.59863;940.5676;;;;
2023/07/08 09:54:20;;;;;;;7.4;3.6;;;;;;;31.73;38.43457;940.5728;;;;
2023/07/08 09:56:49;;;;;;;5.9;3.1;;;;;;;31.86;37.0918;940.6163;;;;
2023/07/08 09:59:14;;;;;;;5.2;3;;;;;;;32.44;37.40332;940.6102;;;;
2023/07/08 10:01:39;;;;;;;4.7;3.1;;;;;;;32.88;34.73828;940.6627;;;;
2023/07/08 10:04:08;;;;;;;4.4;2.7;;;;;;;31.61;39.05859;940.5722;;;;
2023/07/08 10:06:35;;;;;;;4.5;3.1;;;;;;;31.1;39.39844;940.6131;;;;
2023/07/08 10:09:00;;;;;;;6.1;2.6;;;;;;;31.08;36.29883;940.6549;;;;
2023/07/08 10:11:30;;;;;;;5.5;2.9;;;;;;;30.91;41.75977;940.6326;;;;
2023/07/08 10:13:55;;;;;;;9;3.9;;;;;;;30.7;37.69043;940.6309;;;;
2023/07/08 10:16:21;;;;;;;4.6;3;;;;;;;30.23;41.49512;940.646;;;;
2023/07/08 10:18:46;;;;;;;7.4;3.8;;;;;;;30.39;40.38672;940.7277;;;;
2023/07/08 10:21:11;;;;;;;5.8;3.1;;;;;;;30.45;40.3916;940.6823;;;;
2023/07/08 10:23:38;;;;;;;7.1;2.8;;;;;;;30.37;40.85059;940.7092;;;;
2023/07/08 10:26:04;;;;;;;5.6;2.7;;;;;;;30.19;41.13281;940.6635;;;;
2023/07/08 10:28:29;;;;;;;5.3;3.1;;;;;;;29.73;42.65234;940.6726;;;;
2023/07/08 10:30:54;;;;;;;6.2;2.5;;;;;;;29.48;43.52441;940.697;;;;
2023/07/08 10:33:21;;;;;;;4.5;2.9;;;;;;;30.19;41.25195;940.7392;;;;
2023/07/08 10:35:48;;;;;;;5.4;2.8;;;;;;;30.05;41.64551;940.7414;;;;
2023/07/08 10:38:17;;;;;;;3.8;2.6;;;;;;;30.07;38.46094;940.7302;;;;
2023/07/08 10:40:49;;;;;;;5;2.5;;;;;;;30.55;39.24316;940.683;;;;
2023/07/08 10:43:14;;;;;;;4.8;2.9;;;;;;;30.26;41.87988;940.6204;;;;
2023/07/08 10:45:39;;;;;;;6.6;3.2;;;;;;;30.05;42.44531;940.6523;;;;
2023/07/08 10:48:04;;;;;;;8.8;3.1;;;;;;;30.08;40.21582;940.5269;;;;
2023/07/08 10:50:29;;;;;;;5.6;2.5;;;;;;;30.38;39.96777;940.531;;;;
2023/07/08 10:52:55;;;;;;;4.9;2.5;;;;;;;30.78;36.43066;940.6167;;;;
2023/07/08 10:55:20;;;;;;;4.9;2.5;;;;;;;31.04;37.59863;940.5655;;;;
2023/07/08 10:57:45;;;;;;;4.3;2.6;;;;;;;30.59;39.06641;940.5826;;;;
2023/07/08 11:00:10;;;;;;;4.9;2.6;;;;;;;30.46;39.82031;940.5531;;;;
2023/07/08 11:02:35;;;;;;;6.4;2.6;;;;;;;30.61;40.37012;940.5829;;;;
2023/07/08 11:05:01;;;;;;;6.9;3;;;;;;;30.9;39.99023;940.551;;;;
2023/07/08 11:07:30;;;;;;;6.2;2.8;;;;;;;30.94;37.84082;940.5506;;;;
2023/07/08 11:09:56;;;;;;;4;2.6;;;;;;;31.07;38.19922;940.5062;;;;
2023/07/08 11:12:23;;;;;;;4.7;2.5;;;;;;;30.43;38.32422;940.4856;;;;
2023/07/08 11:14:51;;;;;;;6.1;2.6;;;;;;;29.61;40.60352;940.5037;;;;
2023/07/08 11:17:18;;;;;;;5;2.6;;;;;;;29.81;38.52246;940.5214;;;;
2023/07/08 11:19:41;;;;;;;2.9;2.3;;;;;;;30.27;36.56836;940.5287;;;;
2023/07/08 11:22:06;;;;;;;4.5;2.3;;;;;;;30.89;37.38281;940.5355;;;;
2023/07/08 11:24:31;;;;;;;3.8;2.2;;;;;;;31.13;38.80273;940.5364;;;;
2023/07/08 11:26:57;;;;;;;4.6;2.7;;;;;;;31.13;39.81934;940.539;;;;
2023/07/08 11:29:22;;;;;;;4.4;2.8;;;;;;;31.14;37.73828;940.5341;;;;
2023/07/08 11:31:51;;;;;;;5.2;2.6;;;;;;;30.51;39.03613;940.5541;;;;
2023/07/08 11:34:16;;;;;;;4.7;2.7;;;;;;;30.5;38.52246;940.534;;;;
2023/07/08 11:36:43;;;;;;;5;2.3;;;;;;;30.36;39.16699;940.5731;;;;
2023/07/08 11:39:08;;;;;;;6.1;2.3;;;;;;;30.59;41.92285;940.5533;;;;
2023/07/08 11:41:33;;;;;;;4.4;2.5;;;;;;;30.67;38.24805;940.4573;;;;
2023/07/08 11:43:58;;;;;;;7.4;2.5;;;;;;;30.84;37.53418;940.4163;;;;
2023/07/08 11:46:28;;;;;;;5.1;2.5;;;;;;;30.61;40.70508;940.4875;;;;
2023/07/08 11:48:51;;;;;;;4.7;2.4;;;;;;;30.65;38.23535;940.4122;;;;
2023/07/08 11:51:20;;;;;;;6.7;2.5;;;;;;;30.64;37.00391;940.4606;;;;
2023/07/08 11:53:46;;;;;;;5.4;2.7;;;;;;;30.43;39.88867;940.387;;;;
2023/07/08 11:56:12;;;;;;;4.4;2.7;;;;;;;30.2;38.25684;940.4014;;;;
2023/07/08 11:58:37;;;;;;;6.7;2.5;;;;;;;30.1;38.90527;940.3747;;;;
2023/07/08 12:01:02;;;;;;;6.2;2.4;;;;;;;29.72;39.43262;940.3666;;;;
2023/07/08 12:03:28;;;;;;;5.7;2.7;;;;;;;29.1;42.37988;940.3156;;;;
2023/07/08 12:05:53;;;;;;;5.7;2.5;;;;;;;29.19;39.125;940.2928;;;;
2023/07/08 12:08:18;;;;;;;6;2.6;;;;;;;28.89;42.19336;940.3228;;;;
2023/07/08 12:10:43;;;;;;;5.1;2.5;;;;;;;28.85;42.85645;940.3334;;;;
2023/07/08 12:13:08;;;;;;;5;2.5;;;;;;;28.97;41.7002;940.3074;;;;
2023/07/08 12:15:35;;;;;;;5.8;2.5;;;;;;;29.06;44.10254;940.2758;;;;
2023/07/08 12:18:03;;;;;;;6.6;2.4;;;;;;;29.34;43.31934;940.3108;;;;
2023/07/08 12:20:28;;;;;;;8.1;2.7;;;;;;;29.57;42.08887;940.3317;;;;
2023/07/08 12:22:58;;;;;;;6.1;2.6;;;;;;;29.65;41.79883;940.3121;;;;
2023/07/08 12:25:27;;;;;;;5.9;2.6;;;;;;;29.38;43.40625;940.3261;;;;
2023/07/08 12:27:52;;;;;;;4.3;2.8;;;;;;;29.32;41.81641;940.3806;;;;
2023/07/08 12:30:23;;;;;;;4;2.4;;;;;;;29.23;43.53516;940.3586;;;;
2023/07/08 12:32:50;;;;;;;3.4;2.2;;;;;;;28.73;44.53418;940.3837;;;;
2023/07/08 12:35:17;;;;;;;6.5;3.1;;;;;;;28.83;46.91113;940.4142;;;;
2023/07/08 12:37:42;;;;;;;5.2;2.6;;;;;;;29.02;43.64551;940.392;;;;
2023/07/08 12:40:17;;;;;;;4;2.5;;;;;;;29.36;44.56055;940.3723;;;;
2023/07/08 12:42:45;;;;;;;4;2.6;;;;;;;29.96;40.89746;940.3769;;;;
2023/07/08 12:45:10;;;;;;;5.8;2.5;;;;;;;29.99;42.58301;940.464;;;;
2023/07/08 12:47:35;;;;;;;6.4;2.5;;;;;;;30.07;41.91016;940.4604;;;;
2023/07/08 12:50:02;;;;;;;6.3;2.5;;;;;;;29.82;40.62207;940.4318;;;;
2023/07/08 12:52:27;;;;;;;4;2.4;;;;;;;29.85;40.44629;940.4525;;;;
2023/07/08 12:54:57;;;;;;;4.1;2.6;;;;;;;29.29;40.37305;940.3861;;;;
2023/07/08 12:57:22;;;;;;;3.9;2.5;;;;;;;29.1;42.65332;940.486;;;;
2023/07/08 12:59:49;;;;;;;5.2;2.8;;;;;;;29.31;43.24512;940.4827;;;;
2023/07/08 13:02:15;;;;;;;5;2.1;;;;;;;29.44;42.08887;940.4228;;;;
2023/07/08 13:04:40;;;;;;;4.4;2.4;;;;;;;29.12;42.5127;940.5142;;;;
2023/07/08 13:07:05;;;;;;;4.1;2.2;;;;;;;28.9;41.4209;940.5488;;;;
2023/07/08 13:09:30;;;;;;;4.4;2.6;;;;;;;29.02;41.64551;940.5413;;;;
2023/07/08 13:11:58;;;;;;;5.1;2.3;;;;;;;28.95;40.50781;940.5497;;;;
2023/07/08 13:14:24;;;;;;;3.8;2.5;;;;;;;28.99;39.75;940.5136;;;;
2023/07/08 13:16:49;;;;;;;4.2;2.3;;;;;;;28.96;39.78223;940.535;;;;
2023/07/08 13:19:14;;;;;;;5.1;2.7;;;;;;;28.95;38.80566;940.5641;;;;
2023/07/08 13:21:42;;;;;;;4.2;2.1;;;;;;;28.61;42.40625;940.6072;;;;
2023/07/08 13:24:07;;;;;;;3.5;2.3;;;;;;;28.5;43.63184;940.567;;;;
2023/07/08 13:26:35;;;;;;;5.1;2.4;;;;;;;28.31;42.41211;940.593;;;;
2023/07/08 13:29:00;;;;;;;3.8;2.5;;;;;;;28.34;40.95313;940.5684;;;;
2023/07/08 13:31:25;;;;;;;4.5;2.3;;;;;;;28.46;41.42773;940.6038;;;;
2023/07/08 13:33:54;;;;;;;5.8;2.8;;;;;;;28.53;40.60156;940.6506;;;;
2023/07/08 13:36:19;;;;;;;5.9;2.3;;;;;;;28.63;40.27734;940.6834;;;;
2023/07/08 13:38:44;;;;;;;4.2;2.3;;;;;;;28.85;39.60645;940.7263;;;;
2023/07/08 13:41:09;;;;;;;4.6;2.3;;;;;;;29.18;39.30273;940.7725;;;;
2023/07/08 13:43:36;;;;;;;5.5;2.9;;;;;;;29.15;40.05078;940.8323;;;;
2023/07/08 13:46:01;;;;;;;4.2;2.6;;;;;;;29.24;40.9873;940.8807;;;;
2023/07/08 13:48:27;;;;;;;4.9;2.7;;;;;;;29.31;41.50586;940.9785;;;;
2023/07/08 13:50:52;;;;;;;6.6;2.9;;;;;;;29.24;38.9375;940.9408;;;;
2023/07/08 13:53:16;;;;;;;5.9;2.5;;;;;;;28.69;41.87695;941.0343;;;;
2023/07/08 13:55:45;;;;;;;5;2.6;;;;;;;28.93;40.43457;941.0884;;;;
2023/07/08 13:58:11;;;;;;;8.2;2.7;;;;;;;29.13;41.90527;941.1537;;;;
2023/07/08 14:00:40;;;;;;;6.3;2.9;;;;;;;29.09;41.71191;941.1978;;;;
2023/07/08 14:03:07;;;;;;;6;2.7;;;;;;;29.04;42.30176;941.2128;;;;
2023/07/08 14:05:31;;;;;;;3.6;2.8;;;;;;;29;43.07227;941.2254;;;;
2023/07/08 14:07:59;;;;;;;4;2.6;;;;;;;28.94;44.85254;941.2853;;;;
2023/07/08 14:10:26;;;;;;;5.9;2.6;;;;;;;28.91;44.95605;941.2816;;;;
2023/07/08 14:12:57;;;;;;;6.7;2.8;;;;;;;28.82;46.41113;941.2888;;;;
2023/07/08 14:15:21;;;;;;;5.8;3;;;;;;;28.67;47.71582;941.3279;;;;
2023/07/08 14:17:47;;;;;;;8;3.2;;;;;;;28.59;48.45801;941.3699;;;;
2023/07/08 14:20:18;;;;;;;6.6;3.2;;;;;;;28.53;48.56934;941.3837;;;;
2023/07/08 14:22:43;;;;;;;5.5;3;;;;;;;28.48;49.37305;941.4872;;;;
2023/07/08 14:25:12;;;;;;;5;2.6;;;;;;;28.59;48.34961;941.3997;;;;
2023/07/08 14:27:37;;;;;;;6.7;3.5;;;;;;;28.36;51.14258;941.4038;;;;
2023/07/08 14:30:06;;;;;;;4.9;2.9;;;;;;;28.31;51.79102;941.3624;;;;
2023/07/08 14:32:32;;;;;;;7.3;3.1;;;;;;;28.29;53.06055;941.4205;;;;
2023/07/08 14:34:59;;;;;;;4;2.7;;;;;;;28.24;53.31641;941.4171;;;;
2023/07/08 14:37:24;;;;;;;7.3;3.3;;;;;;;28.4;54.70313;941.3653;;;;
2023/07/08 14:39:53;;;;;;;6.3;3.1;;;;;;;28.57;51.62988;941.3842;;;;
2023/07/08 14:42:18;;;;;;;4.7;2.5;;;;;;;28.61;50.08887;941.3688;;;;
2023/07/08 14:44:43;;;;;;;6.7;3.4;;;;;;;28.92;50.35059;941.4046;;;;
2023/07/08 14:47:12;;;;;;;5.7;3.1;;;;;;;28.99;49.46484;941.4048;;;;
2023/07/08 14:49:38;;;;;;;5.4;3.1;;;;;;;29.15;47.19629;941.3629;;;;
2023/07/08 14:52:03;;;;;;;4.8;2.6;;;;;;;29.2;47.41602;941.2723;;;;
2023/07/08 14:54:31;;;;;;;6.3;2.9;;;;;;;28.64;46.5957;941.3602;;;;
2023/07/08 14:56:56;;;;;;;5.5;3.2;;;;;;;27.96;50.44336;941.3123;;;;
2023/07/08 14:59:24;;;;;;;7;2.9;;;;;;;27.59;51.29297;941.3456;;;;